Time;durP1;ratioP1;P1;durP2;ratioP2;P2;SDS_P1;SDS_P2;PMS_P1;PMS_P2;Temp;Humidity;BMP_temperature;BMP_pressure;BME280_temperature;BME280_humidity;BME280_pressure;Samples;Min_cycle;Max_cycle;Signal;HPM_P1;HPM_P2
2023/01/25 00:00:30;;;;;;;23.73;14.02;;;;;;;;;;5069249;28;20203;-69
2023/01/25 00:03:15;;;;;;;30.63;17.63;;;;;;;;;;5067513;28;20050;-73
2023/01/25 00:06:00;;;;;;;23.98;14.13;;;;;;;;;;5087955;28;20040;-68
2023/01/25 00:08:49;;;;;;;26.65;15.05;;;;;;;;;;5092834;28;20107;-68
2023/01/25 00:11:36;;;;;;;26.27;15.23;;;;;;;;;;5073638;28;20035;-68
2023/01/25 00:14:22;;;;;;;25.70;15.90;;;;;;;;;;5073211;28;20282;-67
2023/01/25 00:17:07;;;;;;;26.65;15.57;;;;;;;;;;5076135;28;20395;-67
2023/01/25 00:19:52;;;;;;;28.13;15.25;;;;;;;;;;5078946;28;20040;-68
2023/01/25 00:22:38;;;;;;;28.60;16.40;;;;;;;;;;5075919;28;20507;-67
2023/01/25 00:25:23;;;;;;;26.05;15.63;;;;;;;;;;5079747;28;20106;-68
2023/01/25 00:28:08;;;;;;;27.10;15.95;;;;;;;;;;5075477;28;20051;-68
2023/01/25 00:30:57;;;;;;;23.40;13.98;;;;;;;;;;5076983;28;20032;-69
2023/01/25 00:33:48;;;;;;;28.13;14.88;;;;;;;;;;5067466;28;20035;-67
2023/01/25 00:36:36;;;;;;;28.17;14.77;;;;;;;;;;5067280;28;20046;-68
2023/01/25 00:39:22;;;;;;;23.92;14.35;;;;;;;;;;5071968;28;20024;-68
2023/01/25 00:42:09;;;;;;;24.02;14.15;;;;;;;;;;5069881;28;20062;-66
2023/01/25 00:44:54;;;;;;;26.42;16.02;;;;;;;;;;5071872;28;20124;-70
2023/01/25 00:47:40;;;;;;;25.77;15.75;;;;;;;;;;5080397;28;20031;-71
2023/01/25 00:50:25;;;;;;;23.58;14.57;;;;;;;;;;5073353;28;20039;-70
2023/01/25 00:53:11;;;;;;;24.42;15.48;;;;;;;;;;5089680;28;20040;-71
2023/01/25 00:55:56;;;;;;;31.83;15.18;;;;;;;;;;5070344;28;20424;-71
2023/01/25 00:58:41;;;;;;;24.60;13.88;;;;;;;;;;5082862;28;20028;-70
2023/01/25 01:01:26;;;;;;;27.52;15.20;;;;;;;;;;5073258;28;20036;-70
2023/01/25 01:04:12;;;;;;;24.05;14.43;;;;;;;;;;5071618;28;20020;-67
2023/01/25 01:06:57;;;;;;;25.73;15.23;;;;;;;;;;5068685;28;20397;-66
2023/01/25 01:09:42;;;;;;;24.73;14.25;;;;;;;;;;5072596;28;20064;-66
2023/01/25 01:12:28;;;;;;;27.88;15.90;;;;;;;;;;5088428;28;20038;-68
2023/01/25 01:15:13;;;;;;;26.88;15.20;;;;;;;;;;5076559;28;20024;-67
2023/01/25 01:17:58;;;;;;;26.63;15.70;;;;;;;;;;5071453;28;20023;-68
2023/01/25 01:20:53;;;;;;;25.17;13.93;;;;;;;;;;5078749;28;20088;-68
2023/01/25 01:23:38;;;;;;;27.65;15.60;;;;;;;;;;5066708;28;20047;-70
2023/01/25 01:26:23;;;;;;;23.15;14.20;;;;;;;;;;5073533;28;20398;-71
2023/01/25 01:29:09;;;;;;;24.63;14.02;;;;;;;;;;5075871;28;20024;-69
2023/01/25 01:31:55;;;;;;;25.00;14.13;;;;;;;;;;5074787;28;20343;-72
2023/01/25 01:34:40;;;;;;;25.73;16.40;;;;;;;;;;5078740;28;20031;-72
2023/01/25 01:37:25;;;;;;;22.52;12.85;;;;;;;;;;5068751;28;20025;-70
2023/01/25 01:40:13;;;;;;;22.98;13.30;;;;;;;;;;5055129;28;20105;-66
2023/01/25 01:42:59;;;;;;;22.23;14.10;;;;;;;;;;5066668;28;20553;-74
2023/01/25 01:45:45;;;;;;;27.30;15.02;;;;;;;;;;5073419;28;20044;-72
2023/01/25 01:48:45;;;;;;;24.17;15.35;;;;;;;;;;5075937;28;20526;-71
2023/01/25 01:51:38;;;;;;;22.88;14.68;;;;;;;;;;5070546;28;20502;-70
2023/01/25 01:54:35;;;;;;;23.25;14.30;;;;;;;;;;5085190;28;20212;-69
2023/01/25 01:57:21;;;;;;;24.80;14.45;;;;;;;;;;5071690;28;20028;-72
2023/01/25 02:00:16;;;;;;;22.17;13.75;;;;;;;;;;5076558;28;20028;-71
2023/01/25 02:03:01;;;;;;;25.05;13.93;;;;;;;;;;5076877;28;20032;-72
2023/01/25 02:05:52;;;;;;;22.17;12.20;;;;;;;;;;5073079;28;20036;-72
2023/01/25 02:08:39;;;;;;;22.30;12.73;;;;;;;;;;5067407;28;20061;-72
2023/01/25 02:11:25;;;;;;;22.83;14.15;;;;;;;;;;5074049;28;20388;-73
2023/01/25 02:14:11;;;;;;;21.02;13.40;;;;;;;;;;5077219;28;20115;-71
2023/01/25 02:16:56;;;;;;;24.02;14.90;;;;;;;;;;5072812;28;20040;-69
2023/01/25 02:19:48;;;;;;;23.70;14.55;;;;;;;;;;5075251;28;20550;-68
2023/01/25 02:22:56;;;;;;;22.85;13.63;;;;;;;;;;5073129;28;20185;-69
2023/01/25 02:25:42;;;;;;;26.55;13.07;;;;;;;;;;5082662;28;20040;-69
2023/01/25 02:28:36;;;;;;;21.08;12.10;;;;;;;;;;5067152;28;20027;-71
2023/01/25 02:31:22;;;;;;;21.25;12.98;;;;;;;;;;5074286;28;21851;-68
2023/01/25 02:34:07;;;;;;;24.02;13.23;;;;;;;;;;5082058;28;20028;-67
2023/01/25 02:36:52;;;;;;;26.25;13.73;;;;;;;;;;5066784;28;20044;-73
2023/01/25 02:39:37;;;;;;;24.60;13.05;;;;;;;;;;5075714;28;20311;-69
2023/01/25 02:42:22;;;;;;;24.48;13.48;;;;;;;;;;5087996;28;20127;-70
2023/01/25 02:45:12;;;;;;;22.75;13.80;;;;;;;;;;5071644;28;20623;-70
2023/01/25 02:47:57;;;;;;;22.58;13.55;;;;;;;;;;5070873;28;20574;-72
2023/01/25 02:50:42;;;;;;;22.20;13.20;;;;;;;;;;5069222;28;20033;-71
2023/01/25 02:53:27;;;;;;;23.52;14.20;;;;;;;;;;5070347;28;20059;-71
2023/01/25 02:56:13;;;;;;;23.17;12.57;;;;;;;;;;5075032;28;20020;-71
2023/01/25 02:58:58;;;;;;;24.17;13.32;;;;;;;;;;5080538;28;20094;-72
2023/01/25 03:01:44;;;;;;;27.45;14.70;;;;;;;;;;5073067;28;20045;-71
2023/01/25 03:04:29;;;;;;;22.90;12.57;;;;;;;;;;5074533;28;20319;-72
2023/01/25 03:07:14;;;;;;;20.88;12.45;;;;;;;;;;5081073;28;20551;-71
2023/01/25 03:09:59;;;;;;;21.65;13.23;;;;;;;;;;5070574;28;20023;-80
2023/01/25 03:12:45;;;;;;;25.00;14.07;;;;;;;;;;5070050;28;20182;-67
2023/01/25 03:15:30;;;;;;;24.25;13.68;;;;;;;;;;5079572;28;20078;-68
2023/01/25 03:18:15;;;;;;;23.88;12.13;;;;;;;;;;5073412;28;20070;-69
2023/01/25 03:21:08;;;;;;;23.13;12.68;;;;;;;;;;5072838;28;20464;-67
2023/01/25 03:23:57;;;;;;;21.63;12.95;;;;;;;;;;5074410;28;20118;-67
2023/01/25 03:29:46;;;;;;;22.33;12.30;;;;;;;;;;5086541;28;20024;-68
2023/01/25 03:32:32;;;;;;;23.35;13.60;;;;;;;;;;5072392;28;20078;-67
2023/01/25 03:35:17;;;;;;;26.52;14.50;;;;;;;;;;5078777;28;20035;-66
2023/01/25 03:38:02;;;;;;;21.42;12.60;;;;;;;;;;5079258;28;20011;-66
2023/01/25 03:40:48;;;;;;;24.88;13.80;;;;;;;;;;5070210;28;20068;-68
2023/01/25 03:43:33;;;;;;;20.08;12.65;;;;;;;;;;5072994;28;20518;-68
2023/01/25 03:46:18;;;;;;;27.48;13.93;;;;;;;;;;5073256;28;20548;-70
2023/01/25 03:49:03;;;;;;;24.95;13.70;;;;;;;;;;5069494;28;20020;-67
2023/01/25 03:51:49;;;;;;;23.58;14.00;;;;;;;;;;5062298;28;20116;-67
2023/01/25 03:54:34;;;;;;;21.45;13.05;;;;;;;;;;5070029;28;20020;-70
2023/01/25 03:57:19;;;;;;;23.80;12.90;;;;;;;;;;5070066;28;20056;-68
2023/01/25 04:00:05;;;;;;;22.88;12.38;;;;;;;;;;5071802;28;20048;-71
2023/01/25 04:02:50;;;;;;;21.38;11.75;;;;;;;;;;5077214;28;20114;-67
2023/01/25 04:05:35;;;;;;;19.90;12.65;;;;;;;;;;5073912;28;20116;-68
2023/01/25 04:08:21;;;;;;;22.85;12.25;;;;;;;;;;5072883;28;20020;-79
2023/01/25 04:11:07;;;;;;;22.17;13.20;;;;;;;;;;5080948;28;20024;-80
2023/01/25 04:13:52;;;;;;;21.50;12.35;;;;;;;;;;5067922;28;20036;-78
2023/01/25 04:16:37;;;;;;;18.35;11.45;;;;;;;;;;5058017;28;20028;-76
2023/01/25 04:19:22;;;;;;;20.25;11.98;;;;;;;;;;5071467;28;20561;-80
2023/01/25 04:22:08;;;;;;;21.70;11.68;;;;;;;;;;5057910;28;20054;-81
2023/01/25 04:24:53;;;;;;;21.52;11.48;;;;;;;;;;5076773;28;20040;-66
2023/01/25 04:27:38;;;;;;;19.80;11.50;;;;;;;;;;5067679;28;20107;-66
2023/01/25 04:30:23;;;;;;;17.52;10.80;;;;;;;;;;5075318;28;20590;-67
2023/01/25 04:33:10;;;;;;;19.33;11.02;;;;;;;;;;5083130;28;20069;-67
2023/01/25 04:35:56;;;;;;;20.95;11.75;;;;;;;;;;5074438;28;20028;-68
2023/01/25 04:38:41;;;;;;;22.42;12.30;;;;;;;;;;5056652;28;20047;-69
2023/01/25 04:41:28;;;;;;;20.10;11.63;;;;;;;;;;5081147;28;20024;-74
2023/01/25 04:44:13;;;;;;;20.33;11.40;;;;;;;;;;5077747;28;20044;-68
2023/01/25 04:46:58;;;;;;;16.80;10.18;;;;;;;;;;5074731;28;20495;-71
2023/01/25 04:49:44;;;;;;;16.60;10.43;;;;;;;;;;5068543;28;20105;-72
2023/01/25 04:52:30;;;;;;;19.23;10.63;;;;;;;;;;5088301;28;20031;-72
2023/01/25 04:55:15;;;;;;;18.80;10.38;;;;;;;;;;5071317;28;20338;-72
2023/01/25 04:58:01;;;;;;;19.15;10.52;;;;;;;;;;5074057;28;20052;-71
2023/01/25 05:00:46;;;;;;;18.83;11.10;;;;;;;;;;5068983;28;20039;-71
2023/01/25 05:03:31;;;;;;;19.45;11.32;;;;;;;;;;5076993;28;20025;-71
2023/01/25 05:06:17;;;;;;;15.65;9.00;;;;;;;;;;5082405;28;20120;-71
2023/01/25 05:09:02;;;;;;;16.63;10.45;;;;;;;;;;5069492;28;20107;-70
2023/01/25 05:11:47;;;;;;;17.92;10.23;;;;;;;;;;5074363;28;20032;-70
2023/01/25 05:14:32;;;;;;;19.33;10.05;;;;;;;;;;5076169;28;20188;-70
2023/01/25 05:17:17;;;;;;;15.85;9.02;;;;;;;;;;5067216;28;20029;-70
2023/01/25 05:20:03;;;;;;;17.38;9.70;;;;;;;;;;5072368;28;20035;-67
2023/01/25 05:22:48;;;;;;;16.88;10.10;;;;;;;;;;5071020;28;20596;-68
2023/01/25 05:28:37;;;;;;;15.77;8.88;;;;;;;;;;5070959;28;20020;-67
2023/01/25 05:31:23;;;;;;;16.73;10.15;;;;;;;;;;5075526;28;20016;-69
2023/01/25 05:34:08;;;;;;;15.07;9.00;;;;;;;;;;5075436;28;20657;-67
2023/01/25 05:36:53;;;;;;;15.65;9.00;;;;;;;;;;5078520;28;20024;-71
2023/01/25 05:39:38;;;;;;;19.95;9.48;;;;;;;;;;5080214;28;20032;-71
2023/01/25 05:42:24;;;;;;;15.80;9.43;;;;;;;;;;5072041;28;20119;-69
2023/01/25 05:45:09;;;;;;;17.10;9.43;;;;;;;;;;5075997;28;20077;-70
2023/01/25 05:47:55;;;;;;;17.83;8.95;;;;;;;;;;5074897;28;20459;-69
2023/01/25 05:50:40;;;;;;;18.48;9.00;;;;;;;;;;5075123;28;20044;-70
2023/01/25 05:53:26;;;;;;;19.38;10.23;;;;;;;;;;5077299;28;20020;-70
2023/01/25 05:56:11;;;;;;;17.88;9.50;;;;;;;;;;5093892;28;20047;-69
2023/01/25 05:58:58;;;;;;;15.00;9.00;;;;;;;;;;5078141;28;20614;-70
2023/01/25 06:01:43;;;;;;;14.82;8.50;;;;;;;;;;5075492;28;20546;-72
2023/01/25 06:04:28;;;;;;;14.90;8.82;;;;;;;;;;5066004;28;20437;-73
2023/01/25 06:07:14;;;;;;;18.20;9.02;;;;;;;;;;5087794;28;20020;-70
2023/01/25 06:09:59;;;;;;;16.10;9.30;;;;;;;;;;5082380;28;20016;-70
2023/01/25 06:12:44;;;;;;;15.10;8.65;;;;;;;;;;5074469;28;20032;-70
2023/01/25 06:15:29;;;;;;;16.95;9.15;;;;;;;;;;5077725;28;20078;-70
2023/01/25 06:18:15;;;;;;;16.50;9.05;;;;;;;;;;5077984;28;20088;-72
2023/01/25 06:21:00;;;;;;;19.30;9.10;;;;;;;;;;5072937;28;20416;-68
2023/01/25 06:23:46;;;;;;;17.55;9.23;;;;;;;;;;5074590;28;20024;-68
2023/01/25 06:26:31;;;;;;;16.08;9.57;;;;;;;;;;5081574;28;20063;-70
2023/01/25 06:29:16;;;;;;;16.65;9.30;;;;;;;;;;5077758;28;20437;-69
2023/01/25 06:32:01;;;;;;;15.15;8.55;;;;;;;;;;5088202;28;20039;-69
2023/01/25 06:34:47;;;;;;;17.02;9.70;;;;;;;;;;5080699;28;20024;-78
2023/01/25 06:37:32;;;;;;;17.67;9.13;;;;;;;;;;5081009;28;20019;-73
2023/01/25 06:40:17;;;;;;;17.10;9.85;;;;;;;;;;5078414;28;20044;-74
2023/01/25 06:43:09;;;;;;;17.92;9.65;;;;;;;;;;5081855;28;20409;-73
2023/01/25 06:46:01;;;;;;;15.65;9.65;;;;;;;;;;5071783;28;20407;-73
2023/01/25 06:48:47;;;;;;;18.27;9.93;;;;;;;;;;5080061;28;20085;-72
2023/01/25 06:51:32;;;;;;;19.13;10.02;;;;;;;;;;5102041;27;20032;-68
2023/01/25 06:54:17;;;;;;;17.27;9.23;;;;;;;;;;5070314;28;20650;-73
2023/01/25 06:57:02;;;;;;;18.35;10.52;;;;;;;;;;5069386;28;20711;-74
2023/01/25 06:59:48;;;;;;;15.10;8.95;;;;;;;;;;5074449;28;20020;-74
2023/01/25 07:02:34;;;;;;;18.50;10.32;;;;;;;;;;5074177;28;20039;-73
2023/01/25 07:05:19;;;;;;;19.10;10.23;;;;;;;;;;5076320;28;20537;-71
2023/01/25 07:08:05;;;;;;;15.48;9.63;;;;;;;;;;5069575;28;20024;-71
2023/01/25 07:10:54;;;;;;;16.92;9.63;;;;;;;;;;5074206;28;20039;-70
2023/01/25 07:13:40;;;;;;;18.33;10.23;;;;;;;;;;5075732;28;20036;-72
2023/01/25 07:16:25;;;;;;;17.20;10.00;;;;;;;;;;5080729;28;20107;-70
2023/01/25 07:19:14;;;;;;;15.90;9.65;;;;;;;;;;5070557;28;20075;-69
2023/01/25 07:21:59;;;;;;;16.65;9.95;;;;;;;;;;5086099;28;20087;-68
2023/01/25 07:24:48;;;;;;;18.25;9.65;;;;;;;;;;5082251;28;20126;-68
2023/01/25 07:27:34;;;;;;;19.85;9.77;;;;;;;;;;5073848;28;20020;-71
2023/01/25 07:30:20;;;;;;;15.48;9.43;;;;;;;;;;5057980;28;20061;-77
2023/01/25 07:33:05;;;;;;;19.08;10.35;;;;;;;;;;5082160;28;20471;-79
2023/01/25 07:35:51;;;;;;;15.63;9.45;;;;;;;;;;5080909;28;20032;-77
2023/01/25 07:38:36;;;;;;;14.07;8.85;;;;;;;;;;5072448;28;20051;-78
2023/01/25 07:41:23;;;;;;;17.63;9.85;;;;;;;;;;5081467;28;20400;-78
2023/01/25 07:44:09;;;;;;;17.63;8.35;;;;;;;;;;5080006;28;20090;-79
2023/01/25 07:46:54;;;;;;;16.42;9.38;;;;;;;;;;5071596;28;20545;-74
2023/01/25 07:49:44;;;;;;;17.27;9.50;;;;;;;;;;5082271;28;20032;-71
2023/01/25 07:52:29;;;;;;;21.45;10.52;;;;;;;;;;5074004;28;20023;-71
2023/01/25 07:55:15;;;;;;;18.05;10.57;;;;;;;;;;5080634;28;20035;-69
2023/01/25 07:58:00;;;;;;;15.80;9.70;;;;;;;;;;5075067;28;20066;-69
2023/01/25 08:00:45;;;;;;;16.67;9.80;;;;;;;;;;5071284;28;20261;-69
2023/01/25 08:03:31;;;;;;;18.60;10.55;;;;;;;;;;5057657;28;20073;-66
2023/01/25 08:06:16;;;;;;;19.15;10.00;;;;;;;;;;5071914;28;20032;-67
2023/01/25 08:09:03;;;;;;;18.95;10.52;;;;;;;;;;5080673;28;20120;-68
2023/01/25 08:11:48;;;;;;;18.90;11.52;;;;;;;;;;5075963;28;20066;-67
2023/01/25 08:14:33;;;;;;;21.17;10.90;;;;;;;;;;5081279;28;20155;-67
2023/01/25 08:17:18;;;;;;;16.88;9.65;;;;;;;;;;5079415;28;20087;-67
2023/01/25 08:20:05;;;;;;;17.60;10.30;;;;;;;;;;5081492;28;20020;-68
2023/01/25 08:22:50;;;;;;;15.88;9.25;;;;;;;;;;5069945;28;20021;-74
2023/01/25 08:25:36;;;;;;;16.98;8.98;;;;;;;;;;5076273;28;20134;-75
2023/01/25 08:28:21;;;;;;;20.42;11.27;;;;;;;;;;5064070;28;20027;-75
2023/01/25 08:31:07;;;;;;;17.08;9.90;;;;;;;;;;5077799;28;20032;-76
2023/01/25 08:33:53;;;;;;;17.70;10.40;;;;;;;;;;5073204;28;20482;-74
2023/01/25 08:36:38;;;;;;;18.45;10.13;;;;;;;;;;5071879;28;20111;-75
2023/01/25 08:39:24;;;;;;;16.20;10.68;;;;;;;;;;5072491;28;20032;-76
2023/01/25 08:42:09;;;;;;;18.33;10.10;;;;;;;;;;5072273;28;20037;-66
2023/01/25 08:44:57;;;;;;;18.75;10.60;;;;;;;;;;5067568;28;20048;-72
2023/01/25 08:47:42;;;;;;;16.58;9.27;;;;;;;;;;5076349;28;20035;-69
2023/01/25 08:50:28;;;;;;;17.17;10.82;;;;;;;;;;5085280;28;20035;-72
2023/01/25 08:53:13;;;;;;;19.40;10.02;;;;;;;;;;5070577;28;20050;-71
2023/01/25 08:56:02;;;;;;;16.17;9.68;;;;;;;;;;5066441;28;20031;-70
2023/01/25 08:58:48;;;;;;;16.15;9.15;;;;;;;;;;5081768;28;20339;-74
2023/01/25 09:01:34;;;;;;;15.77;8.55;;;;;;;;;;5068592;28;20433;-70
2023/01/25 09:04:19;;;;;;;20.73;9.45;;;;;;;;;;5070176;28;20024;-73
2023/01/25 09:07:04;;;;;;;15.20;9.40;;;;;;;;;;5070205;28;20046;-71
2023/01/25 09:09:50;;;;;;;16.27;9.80;;;;;;;;;;5076854;28;20058;-71
2023/01/25 09:12:35;;;;;;;18.35;10.73;;;;;;;;;;5075385;28;20026;-72
2023/01/25 09:15:21;;;;;;;14.98;8.43;;;;;;;;;;5074080;28;20570;-71
2023/01/25 09:18:07;;;;;;;19.80;10.25;;;;;;;;;;5076309;28;20495;-67
2023/01/25 09:20:53;;;;;;;17.90;9.80;;;;;;;;;;5073455;28;20028;-67
2023/01/25 09:23:38;;;;;;;15.63;9.23;;;;;;;;;;5075510;28;20020;-66
2023/01/25 09:26:24;;;;;;;14.93;9.45;;;;;;;;;;5062664;28;20470;-67
2023/01/25 09:29:10;;;;;;;17.67;9.20;;;;;;;;;;5071511;28;20036;-66
2023/01/25 09:31:55;;;;;;;17.25;9.68;;;;;;;;;;5077591;28;20121;-69
2023/01/25 09:34:40;;;;;;;14.27;8.75;;;;;;;;;;5070846;28;20496;-67
2023/01/25 09:37:26;;;;;;;15.68;9.40;;;;;;;;;;5077844;28;20028;-68
2023/01/25 09:40:19;;;;;;;17.17;9.32;;;;;;;;;;5073669;28;20038;-66
2023/01/25 09:43:11;;;;;;;16.92;9.27;;;;;;;;;;5072029;28;20507;-66
2023/01/25 09:45:57;;;;;;;15.68;8.50;;;;;;;;;;5070082;28;20061;-68
2023/01/25 09:48:51;;;;;;;14.63;7.80;;;;;;;;;;5071925;28;20036;-68
2023/01/25 09:51:37;;;;;;;16.33;9.27;;;;;;;;;;5078481;28;20020;-68
2023/01/25 09:54:22;;;;;;;15.07;8.73;;;;;;;;;;5084935;28;20334;-68
2023/01/25 09:57:13;;;;;;;14.10;8.60;;;;;;;;;;5073353;28;20025;-72
2023/01/25 10:00:00;;;;;;;13.70;8.80;;;;;;;;;;5070660;28;20529;-66
2023/01/25 10:02:51;;;;;;;15.70;8.15;;;;;;;;;;5089892;28;20365;-67
2023/01/25 10:05:42;;;;;;;16.95;9.68;;;;;;;;;;5080853;28;20036;-68
2023/01/25 10:08:27;;;;;;;15.25;9.45;;;;;;;;;;5073133;28;20050;-69
2023/01/25 10:11:18;;;;;;;17.83;9.63;;;;;;;;;;5072304;28;20470;-69
2023/01/25 10:14:09;;;;;;;15.25;9.40;;;;;;;;;;5075683;28;20028;-69
2023/01/25 10:17:12;;;;;;;15.10;9.50;;;;;;;;;;5076019;28;20051;-68
2023/01/25 10:20:16;;;;;;;17.08;9.18;;;;;;;;;;5081735;28;20077;-69
2023/01/25 10:23:16;;;;;;;18.73;9.73;;;;;;;;;;5075554;28;20062;-69
2023/01/25 10:26:13;;;;;;;18.88;10.88;;;;;;;;;;5094595;28;20037;-69
2023/01/25 10:29:14;;;;;;;16.88;10.13;;;;;;;;;;5077215;28;20039;-68
2023/01/25 10:32:17;;;;;;;16.92;8.93;;;;;;;;;;5087498;28;20474;-68
2023/01/25 10:35:14;;;;;;;15.68;10.13;;;;;;;;;;5091817;28;20196;-71
2023/01/25 10:38:02;;;;;;;17.70;9.50;;;;;;;;;;5076554;28;20034;-68
2023/01/25 10:40:51;;;;;;;16.02;9.25;;;;;;;;;;5078636;28;20829;-68
2023/01/25 10:43:37;;;;;;;15.65;9.35;;;;;;;;;;5075756;28;20613;-67
2023/01/25 10:46:24;;;;;;;19.60;10.30;;;;;;;;;;5075069;28;20044;-68
2023/01/25 10:49:19;;;;;;;15.65;9.38;;;;;;;;;;5078512;28;20043;-66
2023/01/25 10:52:31;;;;;;;15.45;9.68;;;;;;;;;;5073188;28;20031;-69
2023/01/25 10:55:17;;;;;;;16.23;8.88;;;;;;;;;;5087365;28;20020;-71
2023/01/25 10:58:02;;;;;;;19.27;9.75;;;;;;;;;;5083333;28;20028;-73
2023/01/25 11:00:49;;;;;;;16.20;8.93;;;;;;;;;;5072816;28;20024;-72
2023/01/25 11:03:40;;;;;;;16.23;9.00;;;;;;;;;;5075563;28;20028;-70
2023/01/25 11:06:31;;;;;;;18.80;9.48;;;;;;;;;;5082926;28;20036;-73
2023/01/25 11:09:19;;;;;;;16.50;9.70;;;;;;;;;;5073059;28;20081;-73
2023/01/25 11:12:16;;;;;;;16.65;9.73;;;;;;;;;;5071661;28;20028;-69
2023/01/25 11:15:21;;;;;;;19.35;10.48;;;;;;;;;;5087943;28;20838;-69
2023/01/25 11:18:11;;;;;;;18.27;9.55;;;;;;;;;;5074292;28;20035;-69
2023/01/25 11:21:11;;;;;;;15.85;10.20;;;;;;;;;;5073463;28;20035;-69
2023/01/25 11:24:01;;;;;;;19.80;10.25;;;;;;;;;;5079660;28;20176;-67
2023/01/25 11:26:46;;;;;;;18.60;11.13;;;;;;;;;;5087961;28;20074;-68
2023/01/25 11:29:31;;;;;;;22.92;14.00;;;;;;;;;;5085325;28;20021;-76
2023/01/25 11:32:21;;;;;;;20.20;12.93;;;;;;;;;;5077874;28;20552;-73
2023/01/25 11:35:06;;;;;;;;;;;;;;;;;;5080216;28;20162;-75
2023/01/25 11:37:57;;;;;;;24.17;11.55;;;;;;;;;;5082718;28;19965;-73
2023/01/25 11:40:48;;;;;;;18.67;11.35;;;;;;;;;;5078032;28;20491;-64
2023/01/25 11:43:43;;;;;;;19.85;9.93;;;;;;;;;;5081132;28;20043;-66
2023/01/25 11:46:46;;;;;;;19.88;11.25;;;;;;;;;;5071871;28;20047;-65
2023/01/25 11:49:37;;;;;;;21.17;11.63;;;;;;;;;;5071500;28;20020;-65
2023/01/25 11:52:27;;;;;;;18.48;11.38;;;;;;;;;;5081430;28;20552;-64
2023/01/25 11:55:25;;;;;;;19.38;12.02;;;;;;;;;;5071394;28;20293;-65
2023/01/25 11:58:46;;;;;;;18.73;10.35;;;;;;;;;;5074038;28;20032;-64
2023/01/25 12:01:47;;;;;;;18.13;11.63;;;;;;;;;;4986135;28;20032;-66
2023/01/25 12:04:52;;;;;;;20.90;12.45;;;;;;;;;;5078131;28;20032;-67
2023/01/25 12:07:43;;;;;;;20.08;11.85;;;;;;;;;;5073346;28;20024;-73
2023/01/25 12:10:47;;;;;;;21.92;10.88;;;;;;;;;;5079405;28;20090;-72
2023/01/25 12:13:32;;;;;;;20.83;13.15;;;;;;;;;;5085414;28;20028;-72
2023/01/25 12:16:27;;;;;;;20.58;12.13;;;;;;;;;;5072744;28;20653;-72
2023/01/25 12:19:24;;;;;;;20.25;11.63;;;;;;;;;;5075984;28;20100;-72
2023/01/25 12:22:12;;;;;;;19.38;11.15;;;;;;;;;;5068137;28;20043;-68
2023/01/25 12:25:07;;;;;;;18.98;10.80;;;;;;;;;;5072095;28;20036;-70
2023/01/25 12:27:52;;;;;;;21.75;12.25;;;;;;;;;;5075315;28;20028;-69
2023/01/25 12:30:42;;;;;;;18.50;11.20;;;;;;;;;;5069146;28;20128;-68
2023/01/25 12:33:27;;;;;;;;;;;;;;;;;;5079558;28;20035;-69
2023/01/25 12:36:16;;;;;;;19.40;12.35;;;;;;;;;;5074269;28;19916;-69
2023/01/25 12:39:03;;;;;;;16.20;10.63;;;;;;;;;;5068988;28;20103;-69
2023/01/25 12:42:03;;;;;;;20.17;12.68;;;;;;;;;;5076088;28;20119;-66
2023/01/25 12:44:48;;;;;;;;;;;;;;;;;;5080095;28;20052;-67
2023/01/25 12:47:35;;;;;;;22.45;11.45;;;;;;;;;;5074304;28;19947;-68
2023/01/25 12:50:23;;;;;;;19.50;12.50;;;;;;;;;;5074479;28;20497;-68
2023/01/25 12:53:23;;;;;;;20.73;12.45;;;;;;;;;;5082717;28;20445;-67
2023/01/25 12:56:21;;;;;;;21.35;12.27;;;;;;;;;;5079109;28;20047;-64
2023/01/25 12:59:19;;;;;;;23.85;14.75;;;;;;;;;;5069915;28;20020;-67
2023/01/25 13:02:07;;;;;;;22.23;13.00;;;;;;;;;;5071816;28;20111;-70
2023/01/25 13:04:59;;;;;;;21.45;12.57;;;;;;;;;;5084318;28;20466;-71
2023/01/25 13:08:04;;;;;;;23.05;12.10;;;;;;;;;;5079242;28;20112;-71
2023/01/25 13:10:51;;;;;;;21.83;12.48;;;;;;;;;;5073760;28;20028;-70
2023/01/25 13:13:36;;;;;;;17.77;11.35;;;;;;;;;;5081867;28;20345;-69
2023/01/25 13:16:23;;;;;;;18.55;11.27;;;;;;;;;;5075910;28;20032;-71
2023/01/25 13:19:27;;;;;;;20.60;12.77;;;;;;;;;;5079421;28;20266;-68
2023/01/25 13:22:15;;;;;;;23.50;13.18;;;;;;;;;;5082618;28;20501;-68
2023/01/25 13:25:03;;;;;;;20.77;12.43;;;;;;;;;;5079391;28;20032;-67
2023/01/25 13:27:48;;;;;;;23.08;13.27;;;;;;;;;;5070887;28;20034;-69
2023/01/25 13:30:34;;;;;;;22.33;12.32;;;;;;;;;;5073842;28;20026;-69
2023/01/25 13:33:33;;;;;;;20.90;13.23;;;;;;;;;;5076114;28;20089;-71
2023/01/25 13:36:38;;;;;;;19.85;12.63;;;;;;;;;;5070643;28;20035;-65
2023/01/25 13:39:23;;;;;;;26.77;11.80;;;;;;;;;;5084369;28;20139;-66
2023/01/25 13:42:08;;;;;;;21.35;12.95;;;;;;;;;;5068141;28;20547;-67
2023/01/25 13:45:14;;;;;;;18.45;11.75;;;;;;;;;;5070155;28;20510;-65
2023/01/25 13:48:11;;;;;;;21.00;12.15;;;;;;;;;;5079371;28;20027;-68
2023/01/25 13:50:59;;;;;;;20.80;12.57;;;;;;;;;;5071932;28;20033;-66
2023/01/25 13:53:53;;;;;;;21.33;11.60;;;;;;;;;;5077726;28;20020;-72
2023/01/25 13:56:38;;;;;;;25.95;12.40;;;;;;;;;;5076903;28;20021;-66
2023/01/25 13:59:25;;;;;;;23.77;13.35;;;;;;;;;;5076834;28;20028;-67
2023/01/25 14:02:12;;;;;;;22.52;13.02;;;;;;;;;;5082826;28;20024;-66
2023/01/25 14:04:58;;;;;;;20.23;11.77;;;;;;;;;;5075272;28;20506;-67
2023/01/25 14:07:44;;;;;;;21.92;12.25;;;;;;;;;;5073040;28;20111;-69
2023/01/25 14:10:30;;;;;;;18.23;11.15;;;;;;;;;;5086824;28;20024;-72
2023/01/25 14:13:16;;;;;;;21.10;11.60;;;;;;;;;;5074601;28;20027;-63
2023/01/25 14:16:03;;;;;;;20.30;10.55;;;;;;;;;;5077716;28;20036;-66
2023/01/25 14:18:48;;;;;;;21.95;11.80;;;;;;;;;;5080700;28;20051;-68
2023/01/25 14:21:33;;;;;;;22.25;12.77;;;;;;;;;;5078065;28;20089;-69
2023/01/25 14:24:19;;;;;;;24.08;14.23;;;;;;;;;;5080157;28;20027;-67
2023/01/25 14:27:04;;;;;;;24.10;13.68;;;;;;;;;;5080414;28;20319;-68
2023/01/25 14:29:49;;;;;;;20.35;13.45;;;;;;;;;;5078802;28;20547;-68
2023/01/25 14:32:35;;;;;;;26.25;15.13;;;;;;;;;;5079759;28;20085;-69
2023/01/25 14:35:31;;;;;;;22.65;13.60;;;;;;;;;;5076008;28;20730;-70
2023/01/25 14:38:21;;;;;;;25.02;13.30;;;;;;;;;;5078218;28;20115;-70
2023/01/25 14:41:06;;;;;;;21.95;13.15;;;;;;;;;;5071100;28;20119;-70
2023/01/25 14:43:53;;;;;;;23.08;13.50;;;;;;;;;;5075816;28;20044;-69
2023/01/25 14:46:38;;;;;;;25.90;13.43;;;;;;;;;;5077563;28;20519;-71
2023/01/25 14:49:24;;;;;;;21.65;13.52;;;;;;;;;;5075729;28;20764;-69
2023/01/25 14:52:14;;;;;;;20.70;12.88;;;;;;;;;;5087560;28;20086;-69
2023/01/25 14:54:59;;;;;;;21.88;12.38;;;;;;;;;;5075578;28;20032;-68
2023/01/25 14:57:47;;;;;;;24.88;13.88;;;;;;;;;;5073979;28;20111;-70
2023/01/25 15:00:34;;;;;;;21.13;12.93;;;;;;;;;;5074569;28;20040;-70
2023/01/25 15:03:21;;;;;;;19.48;12.38;;;;;;;;;;5081279;28;20482;-69
2023/01/25 15:06:06;;;;;;;23.83;14.70;;;;;;;;;;5077991;28;20036;-72
2023/01/25 15:08:51;;;;;;;20.98;12.43;;;;;;;;;;5068724;28;20086;-68
2023/01/25 15:11:44;;;;;;;22.83;12.65;;;;;;;;;;5072614;28;20097;-68
2023/01/25 15:14:29;;;;;;;18.33;11.73;;;;;;;;;;5089655;28;20032;-68
2023/01/25 15:17:33;;;;;;;25.80;12.40;;;;;;;;;;5081467;28;20028;-68
2023/01/25 15:20:26;;;;;;;22.63;13.05;;;;;;;;;;5076228;28;20040;-70
2023/01/25 15:23:11;;;;;;;24.10;12.48;;;;;;;;;;5091031;28;20091;-69
2023/01/25 15:25:57;;;;;;;23.30;12.80;;;;;;;;;;5075487;28;20029;-70
2023/01/25 15:28:42;;;;;;;26.45;14.27;;;;;;;;;;5074226;28;20036;-73
2023/01/25 15:31:32;;;;;;;24.42;13.45;;;;;;;;;;5071362;28;20494;-74
2023/01/25 15:34:19;;;;;;;24.63;13.35;;;;;;;;;;5071622;28;20039;-72
2023/01/25 15:37:04;;;;;;;25.13;14.40;;;;;;;;;;5084155;28;20035;-72
2023/01/25 15:39:49;;;;;;;24.17;13.68;;;;;;;;;;5070050;28;20028;-72
2023/01/25 15:42:35;;;;;;;23.98;13.25;;;;;;;;;;5075180;28;20051;-71
2023/01/25 15:45:21;;;;;;;23.75;14.23;;;;;;;;;;5076689;28;20038;-68
2023/01/25 15:48:12;;;;;;;24.45;13.63;;;;;;;;;;5078261;28;20055;-72
2023/01/25 15:50:57;;;;;;;24.42;14.55;;;;;;;;;;5072566;28;20028;-72
2023/01/25 15:53:43;;;;;;;27.23;14.35;;;;;;;;;;5074432;28;20016;-76
2023/01/25 15:56:33;;;;;;;24.55;14.18;;;;;;;;;;5076069;28;20035;-71
2023/01/25 15:59:18;;;;;;;32.42;16.08;;;;;;;;;;5055691;28;20067;-71
2023/01/25 16:02:03;;;;;;;26.02;15.20;;;;;;;;;;5073952;28;20033;-71
2023/01/25 16:04:48;;;;;;;26.08;14.82;;;;;;;;;;5067260;28;20670;-70
2023/01/25 16:07:35;;;;;;;28.60;16.08;;;;;;;;;;5072863;28;20028;-71
2023/01/25 16:10:22;;;;;;;23.88;13.90;;;;;;;;;;5069622;28;20024;-72
2023/01/25 16:13:08;;;;;;;27.50;14.23;;;;;;;;;;5058107;28;20032;-72
2023/01/25 16:15:55;;;;;;;25.23;13.50;;;;;;;;;;5074161;28;20437;-70
2023/01/25 16:18:40;;;;;;;27.58;14.43;;;;;;;;;;5077508;28;20032;-72
2023/01/25 16:21:25;;;;;;;25.75;14.60;;;;;;;;;;5081043;28;20032;-69
2023/01/25 16:24:11;;;;;;;25.90;14.85;;;;;;;;;;5078361;28;20457;-70
2023/01/25 16:26:57;;;;;;;25.77;15.52;;;;;;;;;;5083570;28;20043;-73